Time;durP1;ratioP1;P1;durP2;ratioP2;P2;SDS_P1;SDS_P2;PMS_P1;PMS_P2;Temp;Humidity;BMP_temperature;BMP_pressure;BME280_temperature;BME280_humidity;BME280_pressure;Samples;Min_cycle;Max_cycle;Signal;HPM_P1;HPM_P2
2023/10/28 00:01:15;;;;;;;2.03;1.43;;;10.20;99.90;10.20;98617.00;;;;4887446;28;107750;-66
2023/10/28 00:03:41;;;;;;;1.93;1.37;;;10.30;99.90;10.20;98636.00;;;;4885775;28;88024;-66
2023/10/28 00:06:07;;;;;;;1.27;1.00;;;10.30;99.90;10.30;98638.00;;;;4894912;28;88874;-66
2023/10/28 00:08:34;;;;;;;1.43;1.30;;;10.30;99.90;10.30;98636.00;;;;4888293;28;89228;-67
2023/10/28 00:11:00;;;;;;;1.50;1.10;;;10.40;99.90;10.30;98641.00;;;;4873900;28;88327;-67
2023/10/28 00:13:26;;;;;;;1.90;1.27;;;10.40;99.90;10.30;98643.00;;;;4885158;28;89054;-66
2023/10/28 00:15:52;;;;;;;1.33;1.00;;;10.00;99.90;10.40;98640.00;;;;4891168;28;108090;-65
2023/10/28 00:18:18;;;;;;;2.93;0.97;;;10.40;99.90;10.40;98642.00;;;;4884487;28;110556;-66
2023/10/28 00:20:47;;;;;;;4.80;1.70;;;10.40;99.90;10.40;98636.00;;;;4894817;28;107679;-68
2023/10/28 00:23:14;;;;;;;1.57;1.40;;;10.40;99.90;10.40;98639.00;;;;4871927;28;88076;-68
2023/10/28 00:25:41;;;;;;;1.13;1.03;;;10.50;99.90;10.40;98638.00;;;;4893786;28;87977;-68
2023/10/28 00:28:07;;;;;;;1.27;0.80;;;10.40;99.90;10.40;98632.00;;;;4882734;28;87885;-67
2023/10/28 00:30:33;;;;;;;1.40;1.30;;;10.50;99.90;10.40;98633.00;;;;4898378;28;108516;-68
2023/10/28 00:32:59;;;;;;;1.13;1.03;;;10.50;99.90;10.40;98635.00;;;;4882741;28;89494;-68
2023/10/28 00:35:27;;;;;;;1.77;1.40;;;10.50;99.90;10.40;98630.00;;;;4891194;28;88914;-68
2023/10/28 00:37:53;;;;;;;2.57;1.37;;;10.50;99.90;10.40;98644.00;;;;4886828;28;87663;-68
2023/10/28 00:40:20;;;;;;;2.77;1.10;;;10.50;99.90;10.40;98641.00;;;;4877639;28;89472;-67
2023/10/28 00:42:48;;;;;;;2.20;1.10;;;10.50;99.90;10.40;98633.00;;;;4884592;28;88090;-67
2023/10/28 00:45:15;;;;;;;1.47;1.17;;;10.50;99.90;10.40;98639.00;;;;4888883;28;107247;-67
2023/10/28 00:47:44;;;;;;;1.63;1.03;;;10.50;99.90;10.40;98648.00;;;;4883910;28;87830;-68
2023/10/28 00:50:14;;;;;;;1.17;1.07;;;10.50;99.90;10.40;98639.00;;;;4888924;28;87322;-68
2023/10/28 00:52:52;;;;;;;0.90;0.87;;;10.50;99.90;10.40;98654.00;;;;4889427;28;91755;-68
2023/10/28 00:55:22;;;;;;;2.67;0.77;;;10.50;99.90;10.40;98641.00;;;;4890701;28;88537;-67
2023/10/28 00:57:48;;;;;;;1.20;1.10;;;10.50;99.90;10.40;98651.00;;;;4883152;28;88867;-68
2023/10/28 01:00:23;;;;;;;0.90;0.70;;;10.50;99.90;10.40;98657.00;;;;4890039;28;88076;-68
2023/10/28 01:02:49;;;;;;;0.80;0.70;;;10.50;99.90;10.40;98653.00;;;;4879709;28;88445;-68
2023/10/28 01:05:16;;;;;;;0.70;0.70;;;10.50;99.90;10.40;98649.00;;;;4891070;28;88496;-67
2023/10/28 01:07:48;;;;;;;1.63;0.97;;;10.30;99.90;10.40;98651.00;;;;4887835;28;88003;-67
2023/10/28 01:10:29;;;;;;;0.50;0.50;;;10.50;99.90;10.40;98646.00;;;;4884953;28;88133;-66
2023/10/28 01:12:55;;;;;;;1.67;1.13;;;10.50;99.90;10.40;98644.00;;;;4872920;28;88411;-64
2023/10/28 01:15:22;;;;;;;0.87;0.77;;;10.50;99.90;10.40;98654.00;;;;4891653;28;88832;-64
2023/10/28 01:17:49;;;;;;;0.37;0.33;;;10.50;99.90;10.40;98644.00;;;;4888868;28;87961;-65
2023/10/28 01:20:15;;;;;;;1.10;1.00;;;10.50;99.90;10.40;98643.00;;;;4892833;28;87946;-65
2023/10/28 01:22:41;;;;;;;1.13;0.73;;;10.50;99.90;10.40;98648.00;;;;4888583;28;110288;-67
2023/10/28 01:25:07;;;;;;;0.63;0.53;;;10.50;99.90;10.40;98644.00;;;;4890418;28;119511;-67
2023/10/28 01:27:33;;;;;;;1.97;0.60;;;10.50;99.90;10.40;98643.00;;;;4886095;28;105038;-68
2023/10/28 01:29:59;;;;;;;1.00;0.83;;;10.50;99.90;10.40;98650.00;;;;4895720;28;88567;-64
2023/10/28 01:32:25;;;;;;;1.90;0.87;;;10.50;99.90;10.40;98661.00;;;;4890247;28;119224;-66
2023/10/28 01:34:53;;;;;;;1.33;1.10;;;10.40;99.90;10.40;98662.00;;;;4874747;28;115813;-66
2023/10/28 01:37:20;;;;;;;2.60;0.50;;;10.50;99.90;10.40;98657.00;;;;4890300;28;87960;-66
2023/10/28 01:39:52;;;;;;;0.57;0.57;;;10.50;99.90;10.40;98664.00;;;;4887850;28;102934;-66
2023/10/28 01:42:21;;;;;;;0.77;0.77;;;10.50;99.90;10.40;98670.00;;;;4875407;28;88284;-67
2023/10/28 01:44:49;;;;;;;0.87;0.87;;;10.50;99.90;10.40;98667.00;;;;4889194;28;90392;-66
2023/10/28 01:47:15;;;;;;;1.27;0.80;;;10.50;99.90;10.40;98669.00;;;;4889210;28;88815;-65
2023/10/28 01:49:44;;;;;;;0.70;0.70;;;10.50;99.90;10.40;98661.00;;;;4891964;28;87756;-66
2023/10/28 01:52:12;;;;;;;1.10;0.93;;;10.50;99.90;10.40;98664.00;;;;4889468;28;88037;-67
2023/10/28 01:54:38;;;;;;;1.30;1.03;;;10.50;99.90;10.40;98672.00;;;;4872767;28;89513;-66
2023/10/28 01:57:07;;;;;;;1.13;0.70;;;10.50;99.90;10.40;98668.00;;;;4891818;28;87694;-66
2023/10/28 01:59:34;;;;;;;1.07;0.70;;;10.50;99.90;10.40;98670.00;;;;4890042;28;88111;-66
2023/10/28 02:02:03;;;;;;;6.33;0.90;;;10.50;99.90;10.40;98670.00;;;;4889324;28;89212;-65
2023/10/28 02:04:32;;;;;;;0.90;0.50;;;10.50;99.90;10.30;98672.00;;;;4886593;28;88383;-65
2023/10/28 02:06:59;;;;;;;1.33;0.93;;;10.40;99.90;10.30;98671.00;;;;4886882;28;100834;-65
2023/10/28 02:09:26;;;;;;;0.93;0.57;;;10.40;99.90;10.30;98675.00;;;;4885890;28;88183;-64
2023/10/28 02:11:53;;;;;;;0.87;0.80;;;10.40;99.90;10.20;98669.00;;;;4889244;28;89580;-65
2023/10/28 02:14:20;;;;;;;1.50;1.10;;;10.30;99.90;10.20;98667.00;;;;4886793;28;88656;-65
2023/10/28 02:16:45;;;;;;;2.93;1.17;;;10.30;99.90;10.20;98671.00;;;;4894283;28;91297;-65
2023/10/28 02:19:11;;;;;;;1.20;0.80;;;10.20;99.90;10.10;98670.00;;;;4893005;28;92174;-64
2023/10/28 02:21:37;;;;;;;0.63;0.60;;;10.20;99.90;10.00;98676.00;;;;4885619;28;116494;-64
2023/10/28 02:24:03;;;;;;;0.80;0.67;;;10.10;99.90;10.00;98682.00;;;;4892825;28;118709;-64
2023/10/28 02:26:30;;;;;;;0.87;0.80;;;10.10;99.90;9.90;98688.00;;;;4890680;28;88082;-65
2023/10/28 02:28:55;;;;;;;0.57;0.50;;;10.00;99.90;9.90;98697.00;;;;4893251;28;87431;-65
2023/10/28 02:31:21;;;;;;;1.30;0.70;;;10.00;99.90;9.90;98694.00;;;;4889336;28;109103;-65
2023/10/28 02:33:47;;;;;;;0.77;0.77;;;10.00;99.90;9.90;98684.00;;;;4889190;28;88378;-64
2023/10/28 02:36:13;;;;;;;0.70;0.70;;;9.90;99.90;9.80;98690.00;;;;4888816;28;110359;-65
2023/10/28 02:38:40;;;;;;;2.63;0.70;;;9.90;99.90;9.80;98686.00;;;;4890704;28;108176;-64
2023/10/28 02:41:06;;;;;;;2.70;1.10;;;9.90;99.90;9.80;98692.00;;;;4890300;28;89221;-65
2023/10/28 02:43:35;;;;;;;2.90;0.97;;;9.90;99.90;9.80;98699.00;;;;4892539;28;88290;-64
2023/10/28 02:46:05;;;;;;;1.50;0.97;;;9.90;99.90;9.80;98706.00;;;;4891817;28;88656;-63
2023/10/28 02:48:30;;;;;;;1.10;1.00;;;9.80;99.90;9.80;98698.00;;;;4889195;28;87994;-64
2023/10/28 02:51:05;;;;;;;0.80;0.73;;;9.90;99.90;9.80;98709.00;;;;4883051;28;118759;-65
2023/10/28 02:53:31;;;;;;;2.13;1.17;;;9.90;99.90;9.80;98703.00;;;;4874440;28;100804;-65
2023/10/28 02:55:57;;;;;;;2.63;0.60;;;9.90;99.90;9.80;98709.00;;;;4894205;28;87998;-64
2023/10/28 02:58:23;;;;;;;1.07;0.83;;;9.80;99.90;9.80;98700.00;;;;4886244;28;87784;-64
2023/10/28 03:00:49;;;;;;;0.67;0.67;;;9.80;99.90;9.70;98714.00;;;;4896253;28;88835;-64
2023/10/28 03:03:14;;;;;;;3.23;0.70;;;9.90;99.90;9.70;98710.00;;;;4884186;28;118267;-64
2023/10/28 03:05:40;;;;;;;0.50;0.50;;;9.80;99.90;9.70;98716.00;;;;4888435;28;110833;-65
2023/10/28 03:08:06;;;;;;;6.30;1.50;;;9.80;99.90;9.60;98710.00;;;;4883650;28;109597;-64
2023/10/28 03:10:32;;;;;;;0.70;0.70;;;9.70;99.90;9.60;98708.00;;;;4890197;28;116965;-64
2023/10/28 03:12:57;;;;;;;1.37;1.07;;;9.60;99.90;9.50;98717.00;;;;4893035;28;116800;-63
2023/10/28 03:15:24;;;;;;;1.27;1.00;;;9.60;99.90;9.40;98723.00;;;;4896001;28;87982;-64
2023/10/28 03:17:50;;;;;;;1.17;1.07;;;9.60;99.90;9.40;98710.00;;;;4896550;28;86975;-64
2023/10/28 03:20:19;;;;;;;1.10;1.00;;;9.50;99.90;9.30;98713.00;;;;4889452;28;102921;-63
2023/10/28 03:22:44;;;;;;;1.27;0.70;;;9.40;99.90;9.30;98711.00;;;;4893774;28;89062;-65
2023/10/28 03:25:10;;;;;;;1.20;1.10;;;9.40;99.90;9.30;98714.00;;;;4890692;28;110134;-64
2023/10/28 03:27:36;;;;;;;3.70;1.40;;;9.40;99.90;9.20;98715.00;;;;4890132;28;107009;-64
2023/10/28 03:30:02;;;;;;;0.60;0.60;;;9.30;99.90;9.20;98725.00;;;;4893022;28;117758;-63
2023/10/28 03:32:27;;;;;;;0.73;0.73;;;9.30;99.90;9.10;98713.00;;;;4887721;28;90811;-63
2023/10/28 03:34:53;;;;;;;1.07;0.60;;;9.20;99.90;9.10;98729.00;;;;4892759;28;87736;-63
2023/10/28 03:37:19;;;;;;;2.17;1.37;;;9.20;99.90;9.00;98719.00;;;;4888443;28;97745;-63
2023/10/28 03:39:44;;;;;;;0.90;0.73;;;9.20;99.90;9.00;98716.00;;;;4892055;28;118347;-63
2023/10/28 03:42:11;;;;;;;0.40;0.40;;;9.10;99.90;8.90;98711.00;;;;4892227;28;88839;-64
2023/10/28 03:44:37;;;;;;;0.53;0.53;;;9.10;99.90;8.90;98722.00;;;;4891602;28;87945;-63
2023/10/28 03:47:04;;;;;;;0.50;0.40;;;9.00;99.90;8.90;98727.00;;;;4888217;28;109123;-63
2023/10/28 03:49:30;;;;;;;0.53;0.53;;;9.00;99.90;8.80;98727.00;;;;4890875;28;89553;-63
2023/10/28 03:51:56;;;;;;;2.30;0.70;;;8.90;99.90;8.80;98731.00;;;;4891728;28;117759;-63
2023/10/28 03:54:22;;;;;;;1.43;0.50;;;8.90;99.90;8.80;98728.00;;;;4893830;28;95969;-64
2023/10/28 03:56:47;;;;;;;0.70;0.60;;;8.90;99.90;8.70;98737.00;;;;4892533;28;87815;-65
2023/10/28 03:59:14;;;;;;;2.10;1.13;;;8.90;99.90;8.70;98731.00;;;;4895225;28;116369;-63
2023/10/28 04:01:40;;;;;;;0.80;0.80;;;8.80;99.90;8.60;98738.00;;;;4896450;28;88556;-63
2023/10/28 04:04:07;;;;;;;0.60;0.60;;;9.10;99.90;8.60;98725.00;;;;4895567;28;88105;-63
2023/10/28 04:06:33;;;;;;;0.60;0.47;;;8.70;99.90;8.50;98730.00;;;;4894013;28;94329;-63
2023/10/28 04:08:59;;;;;;;1.50;0.97;;;8.60;99.90;8.50;98729.00;;;;4892569;28;110920;-63
2023/10/28 04:11:25;;;;;;;2.87;0.87;;;8.60;99.90;8.50;98736.00;;;;4895079;28;88700;-63
2023/10/28 04:13:52;;;;;;;0.90;0.60;;;8.60;99.90;8.50;98743.00;;;;4894186;28;89244;-65
2023/10/28 04:16:18;;;;;;;0.30;0.30;;;8.50;99.90;8.40;98729.00;;;;4897787;28;87643;-66
2023/10/28 04:18:44;;;;;;;1.10;0.70;;;8.50;99.90;8.40;98741.00;;;;4894916;28;108270;-65
2023/10/28 04:21:09;;;;;;;3.37;1.07;;;8.50;99.90;8.40;98738.00;;;;4896659;28;87912;-65
2023/10/28 04:23:35;;;;;;;1.90;0.87;;;8.50;99.90;8.40;98747.00;;;;4891807;28;109873;-65
2023/10/28 04:26:02;;;;;;;0.47;0.40;;;8.50;99.90;8.40;98745.00;;;;4892335;28;108192;-66
2023/10/28 04:28:28;;;;;;;1.03;0.93;;;8.50;99.90;8.40;98750.00;;;;4894720;28;88108;-65
2023/10/28 04:30:56;;;;;;;2.03;1.07;;;8.50;99.90;8.40;98745.00;;;;4899523;28;117549;-65
2023/10/28 04:33:23;;;;;;;1.87;0.70;;;8.50;99.90;8.40;98748.00;;;;4897974;28;87941;-66
2023/10/28 04:35:49;;;;;;;1.33;1.00;;;8.50;99.90;8.40;98753.00;;;;4897037;28;87724;-64
2023/10/28 04:38:14;;;;;;;1.47;0.80;;;8.50;99.90;8.40;98746.00;;;;4892688;28;118967;-64
2023/10/28 04:40:40;;;;;;;2.57;1.13;;;8.50;99.90;8.40;98746.00;;;;4897356;28;117094;-65
2023/10/28 04:43:06;;;;;;;1.53;1.07;;;8.50;99.90;8.40;98752.00;;;;4897039;28;88091;-64
2023/10/28 04:45:32;;;;;;;1.43;1.17;;;8.50;99.90;8.40;98762.00;;;;4894722;28;95970;-65
2023/10/28 04:47:57;;;;;;;5.10;1.37;;;8.50;99.90;8.40;98754.00;;;;4893703;28;119572;-65
2023/10/28 04:50:23;;;;;;;0.70;0.70;;;8.50;99.90;8.40;98762.00;;;;4884532;28;116615;-65
2023/10/28 04:52:49;;;;;;;0.90;0.90;;;8.50;99.90;8.40;98755.00;;;;4893928;28;88493;-64
2023/10/28 04:55:15;;;;;;;1.23;1.00;;;8.40;99.90;8.30;98762.00;;;;4896800;28;87637;-64
2023/10/28 04:57:41;;;;;;;0.60;0.50;;;8.40;99.90;8.30;98765.00;;;;4892485;28;117916;-65
2023/10/28 05:00:08;;;;;;;1.10;0.87;;;8.40;99.90;8.30;98768.00;;;;4874866;28;88063;-65
2023/10/28 05:02:34;;;;;;;0.80;0.80;;;8.40;99.90;8.30;98773.00;;;;4892312;28;89289;-64
2023/10/28 05:05:03;;;;;;;1.17;1.07;;;8.40;99.90;8.30;98785.00;;;;4892943;28;87852;-64
2023/10/28 05:07:29;;;;;;;1.47;1.13;;;8.40;99.90;8.20;98779.00;;;;4893712;28;89525;-64
2023/10/28 05:09:55;;;;;;;2.23;1.20;;;8.40;99.90;8.30;98776.00;;;;4892016;28;88169;-65
2023/10/28 05:12:21;;;;;;;3.70;1.07;;;8.40;99.90;8.20;98782.00;;;;4892729;28;88420;-64
2023/10/28 05:14:47;;;;;;;1.23;0.73;;;8.40;99.90;8.20;98776.00;;;;4890169;28;108282;-64
2023/10/28 05:17:12;;;;;;;0.43;0.43;;;8.40;99.90;8.20;98773.00;;;;4893102;28;116794;-64
2023/10/28 05:19:38;;;;;;;0.70;0.70;;;8.30;99.90;8.20;98773.00;;;;4896434;28;87849;-64
2023/10/28 05:22:04;;;;;;;3.13;1.23;;;8.60;99.90;8.20;98784.00;;;;4895101;28;111807;-64
2023/10/28 05:24:30;;;;;;;0.67;0.50;;;8.30;99.90;8.20;98769.00;;;;4897584;28;87846;-65
2023/10/28 05:26:59;;;;;;;0.73;0.70;;;8.30;99.90;8.20;98770.00;;;;4889511;28;119469;-65
2023/10/28 05:29:25;;;;;;;0.80;0.80;;;8.30;99.90;8.20;98779.00;;;;4890663;28;89914;-65
2023/10/28 05:31:51;;;;;;;1.10;0.97;;;8.30;99.90;8.30;98787.00;;;;4891824;28;93576;-65
2023/10/28 05:34:19;;;;;;;0.70;0.70;;;8.30;99.90;8.30;98778.00;;;;4889781;28;88043;-65
2023/10/28 05:36:44;;;;;;;0.93;0.90;;;8.40;99.90;8.40;98781.00;;;;4890433;28;87892;-64
2023/10/28 05:39:11;;;;;;;3.77;1.50;;;8.40;99.90;8.40;98780.00;;;;4892197;28;115441;-65
2023/10/28 05:41:36;;;;;;;1.00;0.90;;;8.50;99.90;8.40;98801.00;;;;4893999;28;89512;-65
2023/10/28 05:44:02;;;;;;;1.30;1.20;;;8.50;99.90;8.40;98792.00;;;;4891100;28;108702;-65
2023/10/28 05:46:28;;;;;;;1.33;0.97;;;8.40;99.90;8.40;98798.00;;;;4891248;28;88436;-65
2023/10/28 05:48:54;;;;;;;3.57;1.47;;;8.50;99.90;8.40;98801.00;;;;4894193;28;100521;-65
2023/10/28 05:51:20;;;;;;;3.90;1.17;;;8.50;99.90;8.40;98810.00;;;;4892331;28;110511;-65
2023/10/28 05:53:45;;;;;;;2.00;1.10;;;8.50;99.90;8.40;98823.00;;;;4893999;28;88000;-65
2023/10/28 05:56:11;;;;;;;4.57;1.20;;;8.50;99.90;8.40;98824.00;;;;4892152;28;117990;-64
2023/10/28 05:58:37;;;;;;;1.10;1.00;;;8.50;99.90;8.30;98806.00;;;;4893232;28;87831;-65
2023/10/28 06:01:06;;;;;;;1.40;1.03;;;8.40;99.90;8.30;98822.00;;;;4875283;28;87809;-66
2023/10/28 06:03:32;;;;;;;1.77;1.23;;;8.50;99.90;8.30;98823.00;;;;4891783;28;88084;-65
2023/10/28 06:05:57;;;;;;;1.07;0.97;;;8.40;99.90;8.30;98833.00;;;;4875030;28;88648;-65
2023/10/28 06:08:23;;;;;;;1.60;1.27;;;8.40;99.90;8.30;98837.00;;;;4894426;28;90280;-64
2023/10/28 06:10:49;;;;;;;1.33;0.83;;;8.40;99.90;8.30;98820.00;;;;4894140;28;110934;-64
2023/10/28 06:13:15;;;;;;;1.73;1.07;;;8.40;99.90;8.30;98833.00;;;;4891489;28;108153;-65
2023/10/28 06:15:44;;;;;;;1.00;0.90;;;8.40;99.90;8.40;98841.00;;;;4888537;28;90411;-66
2023/10/28 06:18:11;;;;;;;0.70;0.63;;;8.50;99.90;8.40;98841.00;;;;4887260;28;87858;-65
2023/10/28 06:20:37;;;;;;;1.97;0.97;;;8.50;99.90;8.40;98841.00;;;;4892545;28;88072;-65
2023/10/28 06:23:06;;;;;;;0.70;0.70;;;8.70;99.90;8.40;98843.00;;;;4890564;28;98676;-65
2023/10/28 06:25:34;;;;;;;1.20;1.10;;;8.50;99.90;8.50;98850.00;;;;4889311;28;88774;-65
2023/10/28 06:28:02;;;;;;;2.53;1.67;;;8.40;99.90;8.50;98854.00;;;;4894117;28;88832;-65
2023/10/28 06:30:27;;;;;;;2.07;1.83;;;8.60;99.90;8.50;98847.00;;;;4888743;28;87977;-65
2023/10/28 06:32:53;;;;;;;1.87;1.53;;;8.60;99.90;8.50;98854.00;;;;4888939;28;107201;-65
2023/10/28 06:35:19;;;;;;;3.20;1.57;;;8.70;99.90;8.50;98852.00;;;;4888069;28;117069;-65
2023/10/28 06:37:46;;;;;;;1.27;1.17;;;9.00;99.90;8.50;98862.00;;;;4892001;28;115250;-65
2023/10/28 06:40:12;;;;;;;1.67;1.57;;;8.60;99.90;8.60;98861.00;;;;4890182;28;89053;-65
2023/10/28 06:42:38;;;;;;;0.93;0.83;;;8.70;99.90;8.60;98872.00;;;;4888423;28;88098;-66
2023/10/28 06:45:10;;;;;;;2.73;1.83;;;8.70;99.90;8.60;98870.00;;;;4888092;28;89735;-65
2023/10/28 06:47:36;;;;;;;2.37;1.67;;;8.70;99.90;8.70;98868.00;;;;4885280;28;89074;-65
2023/10/28 06:50:04;;;;;;;1.50;0.87;;;8.70;99.90;8.70;98868.00;;;;4886585;28;110368;-64
2023/10/28 06:52:31;;;;;;;1.10;1.00;;;9.40;99.90;8.80;98869.00;;;;4890725;28;88010;-65
2023/10/28 06:54:59;;;;;;;2.53;1.30;;;8.80;99.90;8.80;98876.00;;;;4889453;28;110932;-65
2023/10/28 06:57:25;;;;;;;3.47;1.23;;;8.90;99.90;8.90;98876.00;;;;4887616;28;88859;-66
2023/10/28 06:59:50;;;;;;;1.70;1.50;;;9.00;99.90;9.00;98883.00;;;;4889322;28;103167;-65
2023/10/28 07:02:16;;;;;;;2.13;1.40;;;9.00;99.90;9.00;98881.00;;;;4891701;28;107897;-65
2023/10/28 07:04:42;;;;;;;1.57;1.30;;;9.10;99.90;9.10;98890.00;;;;4888651;28;118123;-66
2023/10/28 07:07:12;;;;;;;2.07;1.13;;;9.10;99.90;9.20;98892.00;;;;4888945;28;89581;-65
2023/10/28 07:09:38;;;;;;;1.33;1.23;;;9.20;99.90;9.30;98899.00;;;;4892783;28;88721;-65
2023/10/28 07:12:04;;;;;;;1.33;1.23;;;9.30;99.90;9.40;98888.00;;;;4891154;28;108676;-65
2023/10/28 07:14:30;;;;;;;0.93;0.90;;;9.50;99.90;9.50;98891.00;;;;4894031;28;110970;-65
2023/10/28 07:16:56;;;;;;;1.67;1.40;;;9.50;99.90;9.60;98907.00;;;;4888254;28;116786;-66
2023/10/28 07:19:21;;;;;;;1.30;1.13;;;9.60;99.90;9.80;98899.00;;;;4889422;28;109061;-65
2023/10/28 07:21:47;;;;;;;1.47;1.13;;;9.80;99.90;9.90;98905.00;;;;4892592;28;108752;-66
2023/10/28 07:24:13;;;;;;;1.00;0.93;;;9.90;99.90;9.90;98921.00;;;;4888548;28;117940;-65
2023/10/28 07:26:39;;;;;;;4.23;1.37;;;10.00;99.90;10.00;98910.00;;;;4889634;28;116556;-65
2023/10/28 07:29:07;;;;;;;2.20;1.10;;;10.10;99.90;10.10;98919.00;;;;4892330;28;110565;-65
2023/10/28 07:31:38;;;;;;;1.43;1.33;;;10.10;99.90;10.20;98920.00;;;;4890677;28;89544;-65
2023/10/28 07:34:07;;;;;;;1.87;1.60;;;10.20;99.90;10.20;98925.00;;;;4892702;28;89593;-65
2023/10/28 07:36:34;;;;;;;1.27;1.17;;;10.30;99.90;10.30;98924.00;;;;4889594;28;87846;-66
2023/10/28 07:39:01;;;;;;;7.63;2.70;;;10.30;99.90;10.30;98924.00;;;;4891114;28;88036;-66
2023/10/28 07:41:29;;;;;;;5.20;2.67;;;10.40;99.90;10.40;98924.00;;;;4887004;28;88004;-65
2023/10/28 07:43:56;;;;;;;4.00;2.50;;;10.40;99.90;10.40;98935.00;;;;4888320;28;88600;-66
2023/10/28 07:46:24;;;;;;;9.70;3.83;;;10.50;99.90;10.50;98930.00;;;;4889550;28;87503;-66
2023/10/28 07:48:49;;;;;;;4.93;3.13;;;10.50;99.90;10.50;98933.00;;;;4872598;28;87977;-65
2023/10/28 07:51:17;;;;;;;5.87;3.07;;;10.50;99.90;10.60;98941.00;;;;4891137;28;87975;-65
2023/10/28 07:53:44;;;;;;;4.50;2.60;;;10.60;99.90;10.60;98937.00;;;;4893821;28;90103;-66
2023/10/28 07:56:10;;;;;;;2.47;1.50;;;10.70;99.90;10.70;98949.00;;;;4891570;28;89587;-66
2023/10/28 07:58:36;;;;;;;1.93;1.30;;;10.70;99.90;10.70;98952.00;;;;4880274;28;88010;-67
2023/10/28 08:01:03;;;;;;;2.43;1.40;;;10.80;99.90;10.80;98961.00;;;;4890161;28;89253;-67
2023/10/28 08:03:29;;;;;;;2.00;1.40;;;10.80;99.90;10.90;98967.00;;;;4891104;28;89027;-67
2023/10/28 08:05:56;;;;;;;1.33;1.07;;;10.90;99.90;10.90;98970.00;;;;4890580;28;88815;-68
2023/10/28 08:08:21;;;;;;;2.00;1.30;;;10.90;99.90;10.90;98966.00;;;;4889143;28;87804;-67
2023/10/28 08:10:48;;;;;;;1.07;0.90;;;11.00;99.90;11.00;98968.00;;;;4892148;28;87038;-68
2023/10/28 08:13:14;;;;;;;1.10;0.97;;;11.00;99.90;11.00;98969.00;;;;4888746;28;88120;-67
2023/10/28 08:15:39;;;;;;;0.90;0.90;;;11.10;99.90;11.10;98984.00;;;;4886809;28;118556;-66
2023/10/28 08:18:05;;;;;;;1.77;0.70;;;11.10;99.90;11.10;98987.00;;;;4892736;28;95027;-67
2023/10/28 08:20:31;;;;;;;1.13;0.90;;;11.10;99.90;11.10;98981.00;;;;4894891;28;87797;-68
2023/10/28 08:22:56;;;;;;;1.63;0.73;;;11.10;99.90;11.20;98995.00;;;;4890241;28;88549;-68
2023/10/28 08:25:22;;;;;;;1.03;0.93;;;11.20;99.90;11.20;98990.00;;;;4888834;28;99943;-69
2023/10/28 08:27:48;;;;;;;0.80;0.70;;;11.20;99.90;11.20;98997.00;;;;4869014;28;103522;-68
2023/10/28 08:30:15;;;;;;;1.67;0.83;;;11.30;99.90;11.30;98998.00;;;;4887298;28;110477;-66
2023/10/28 08:32:42;;;;;;;1.07;0.80;;;11.30;99.90;11.30;99000.00;;;;4893595;28;88235;-68
2023/10/28 08:35:09;;;;;;;1.33;1.03;;;11.30;99.90;11.40;98998.00;;;;4891467;28;107637;-67
2023/10/28 08:37:35;;;;;;;1.40;1.03;;;11.40;99.90;11.40;99008.00;;;;4887373;28;88244;-66
2023/10/28 08:40:03;;;;;;;1.37;1.13;;;11.40;99.90;11.50;99007.00;;;;4889506;28;88105;-68
2023/10/28 08:42:30;;;;;;;0.97;0.70;;;11.50;99.90;11.60;99008.00;;;;4887429;28;90272;-69
2023/10/28 08:44:58;;;;;;;1.07;0.87;;;11.60;99.90;11.60;99008.00;;;;4889492;28;117092;-67
2023/10/28 08:47:26;;;;;;;0.80;0.80;;;11.60;99.90;11.70;99009.00;;;;4876921;28;87998;-67
2023/10/28 08:49:54;;;;;;;1.17;0.70;;;11.70;99.90;11.70;99017.00;;;;4888642;28;87566;-66
2023/10/28 08:52:23;;;;;;;1.17;0.57;;;11.70;99.90;11.80;99027.00;;;;4869122;28;89092;-65
2023/10/28 08:54:49;;;;;;;0.93;0.87;;;11.80;99.90;11.90;99031.00;;;;4887999;28;87689;-66
2023/10/28 08:57:17;;;;;;;1.03;0.80;;;11.90;99.90;11.90;99024.00;;;;4887164;28;109857;-67
2023/10/28 08:59:42;;;;;;;0.40;0.33;;;11.90;99.90;12.00;99013.00;;;;4878758;28;87231;-67
2023/10/28 09:02:12;;;;;;;1.00;0.53;;;12.00;99.90;12.10;99026.00;;;;4889267;28;117097;-65
2023/10/28 09:04:37;;;;;;;1.03;0.93;;;12.10;99.90;12.20;99024.00;;;;4886349;28;87939;-65
2023/10/28 09:07:05;;;;;;;0.77;0.57;;;12.20;99.90;12.30;99034.00;;;;4889309;28;109926;-68
2023/10/28 09:09:31;;;;;;;1.00;0.80;;;12.30;99.90;12.30;99032.00;;;;4888962;28;87886;-67
2023/10/28 09:11:57;;;;;;;1.77;0.60;;;12.70;99.90;12.40;99044.00;;;;4887804;28;90906;-67
2023/10/28 09:14:24;;;;;;;0.20;0.20;;;12.40;99.90;12.40;99047.00;;;;4888657;28;88248;-66
2023/10/28 09:16:50;;;;;;;0.63;0.63;;;12.40;99.90;12.40;99051.00;;;;4890421;28;87702;-67
2023/10/28 09:19:20;;;;;;;0.57;0.53;;;12.50;99.90;12.50;99059.00;;;;4890891;28;88075;-68
2023/10/28 09:21:48;;;;;;;0.50;0.50;;;12.50;99.90;12.50;99052.00;;;;4889241;28;88793;-66
2023/10/28 09:24:17;;;;;;;3.90;0.67;;;12.50;99.90;12.60;99047.00;;;;4889714;28;89033;-67
2023/10/28 09:26:43;;;;;;;0.40;0.40;;;12.90;99.90;12.70;99058.00;;;;4891054;28;103208;-67
2023/10/28 09:29:09;;;;;;;0.30;0.30;;;12.70;99.90;12.80;99056.00;;;;4890621;28;90011;-68
2023/10/28 09:31:36;;;;;;;0.63;0.47;;;12.80;99.90;12.90;99063.00;;;;4887418;28;89736;-67
2023/10/28 09:34:02;;;;;;;2.87;0.83;;;12.80;99.90;12.90;99057.00;;;;4888908;28;88265;-67
2023/10/28 09:36:32;;;;;;;1.87;0.50;;;12.90;99.90;12.90;99068.00;;;;4869107;28;110175;-66
2023/10/28 09:39:00;;;;;;;1.93;0.60;;;12.90;99.90;12.90;99073.00;;;;4872490;28;106871;-67
2023/10/28 09:41:26;;;;;;;1.60;0.30;;;12.90;99.90;12.90;99075.00;;;;4884921;28;116237;-66
2023/10/28 09:43:53;;;;;;;0.30;0.30;;;13.00;99.90;12.90;99068.00;;;;4890259;28;88252;-66
2023/10/28 09:46:26;;;;;;;2.00;0.70;;;13.00;99.90;12.90;99072.00;;;;4885921;28;109826;-67
2023/10/28 09:48:58;;;;;;;0.50;0.37;;;12.90;99.90;12.90;99080.00;;;;4889851;28;87413;-66
2023/10/28 09:51:27;;;;;;;0.63;0.47;;;12.90;99.90;12.90;99074.00;;;;4886556;28;112341;-67
2023/10/28 09:54:00;;;;;;;0.83;0.43;;;12.90;99.90;12.90;99076.00;;;;4885315;28;88239;-66
2023/10/28 09:56:34;;;;;;;0.40;0.40;;;12.90;99.90;12.90;99072.00;;;;4884737;28;89189;-67
2023/10/28 09:59:13;;;;;;;0.50;0.43;;;12.90;99.90;12.90;99083.00;;;;4885577;28;88190;-66
2023/10/28 10:02:01;;;;;;;0.33;0.33;;;12.90;99.90;12.90;99072.00;;;;4869313;28;88206;-66
2023/10/28 10:04:56;;;;;;;0.40;0.40;;;12.90;99.90;12.90;99081.00;;;;4888729;28;89771;-66
2023/10/28 10:07:22;;;;;;;0.50;0.40;;;12.90;99.90;12.90;99080.00;;;;4887157;28;87876;-66
2023/10/28 10:09:47;;;;;;;0.60;0.50;;;12.90;99.90;13.00;99071.00;;;;4887396;28;88749;-66
2023/10/28 10:12:14;;;;;;;0.47;0.40;;;12.90;99.90;13.00;99071.00;;;;4888196;28;91597;-66
2023/10/28 10:14:45;;;;;;;0.20;0.20;;;12.90;99.90;13.00;99081.00;;;;4887598;28;87753;-68
2023/10/28 10:17:29;;;;;;;0.47;0.40;;;13.00;99.90;13.00;99088.00;;;;4888966;28;87829;-68
2023/10/28 10:19:59;;;;;;;0.23;0.23;;;13.10;99.90;13.00;99076.00;;;;4891936;28;87675;-68
2023/10/28 10:22:31;;;;;;;1.43;0.43;;;13.50;99.90;13.00;99082.00;;;;4886467;28;90053;-68
2023/10/28 10:24:57;;;;;;;0.30;0.30;;;13.00;99.90;12.90;99087.00;;;;4886555;28;88728;-68
2023/10/28 10:27:39;;;;;;;0.50;0.50;;;12.90;99.90;12.70;99085.00;;;;4889874;28;110947;-68
2023/10/28 10:30:09;;;;;;;0.20;0.20;;;12.80;99.90;12.50;99099.00;;;;4886562;28;88057;-66
2023/10/28 10:32:50;;;;;;;0.20;0.20;;;12.60;99.90;12.40;99104.00;;;;4884925;28;88803;-68
2023/10/28 10:35:32;;;;;;;0.60;0.20;;;12.50;99.90;12.30;99102.00;;;;4891924;28;87949;-69
2023/10/28 10:38:05;;;;;;;0.30;0.30;;;12.40;99.90;12.20;99101.00;;;;4887822;28;88355;-69
2023/10/28 10:40:34;;;;;;;0.77;0.40;;;11.90;99.90;12.10;99110.00;;;;4893461;28;87588;-71
2023/10/28 10:43:08;;;;;;;0.30;0.30;;;12.20;99.90;12.10;99105.00;;;;4855248;28;89457;-69
2023/10/28 10:45:34;;;;;;;0.60;0.37;;;12.20;99.90;12.10;99108.00;;;;4886941;28;89235;-70
2023/10/28 10:48:02;;;;;;;0.30;0.30;;;12.10;99.90;12.10;99106.00;;;;4850532;28;89612;-69
2023/10/28 10:50:28;;;;;;;1.10;0.77;;;12.20;99.90;12.10;99099.00;;;;4886618;28;88218;-69
2023/10/28 10:52:56;;;;;;;0.33;0.33;;;12.10;99.90;12.10;99105.00;;;;4886512;28;105516;-68
2023/10/28 10:55:27;;;;;;;0.10;0.10;;;12.10;99.90;12.10;99103.00;;;;4886497;28;89072;-68
2023/10/28 10:57:53;;;;;;;0.20;0.20;;;12.10;99.90;12.10;99109.00;;;;4883583;28;87882;-67
2023/10/28 11:00:20;;;;;;;0.30;0.30;;;12.20;99.90;12.10;99112.00;;;;4888697;28;108735;-69